Terminal Aerodrome Forecast
Issued by NWS

Home | Current Version | Previous Version | Text Only | Print | Product List | Glossary On
Versions: 1 2 3 4 5 6 7 8 9 10 11 12 13 14 15 16 17
000
FTUS43 KILX 061100
TAFBMI
TAF
KBMI 061133Z 0612/0712 18012KT P6SM SCT100
     FM061500 19016G24KT P6SM BKN100
     FM070000 22012KT P6SM SCT250=

USA.gov is the U.S. government's official web portal to all federal, state and local government web resources and services.